Time;durP1;ratioP1;P1;durP2;ratioP2;P2;SDS_P1;SDS_P2;PMS_P1;PMS_P2;Temp;Humidity;BMP_temperature;BMP_pressure;BME280_temperature;BME280_humidity;BME280_pressure;Samples;Min_cycle;Max_cycle;Signal;HPM_P1;HPM_P2
2021/12/13 00:00:09;;;;;;;13.05;7.53;;;18.60;45.90;;;;;;5074631;28;20183;-68
2021/12/13 00:02:44;;;;;;;10.60;7.15;;;18.60;45.90;;;;;;5073923;28;20215;-68
2021/12/13 00:05:13;;;;;;;11.07;7.28;;;18.60;45.80;;;;;;5056796;28;20259;-68
2021/12/13 00:07:42;;;;;;;11.73;7.32;;;18.60;45.80;;;;;;5057004;28;20654;-68
2021/12/13 00:10:11;;;;;;;11.25;7.03;;;18.60;46.00;;;;;;5056649;28;20261;-68
2021/12/13 00:12:41;;;;;;;10.25;6.72;;;18.60;45.90;;;;;;5056660;28;20214;-68
2021/12/13 00:15:11;;;;;;;12.40;7.20;;;18.60;45.90;;;;;;5056260;28;20199;-69
2021/12/13 00:17:43;;;;;;;10.02;6.57;;;18.60;45.90;;;;;;5056265;28;20190;-68
2021/12/13 00:20:12;;;;;;;9.88;5.82;;;18.50;45.90;;;;;;5056316;28;20226;-69
2021/12/13 00:22:43;;;;;;;12.05;6.40;;;18.50;45.90;;;;;;5056017;28;20225;-67
2021/12/13 00:25:12;;;;;;;11.18;6.97;;;18.50;45.80;;;;;;5056318;28;20733;-68
2021/12/13 00:27:40;;;;;;;11.57;6.65;;;18.50;45.80;;;;;;5055937;28;20260;-68
2021/12/13 00:30:09;;;;;;;11.10;6.82;;;18.50;46.40;;;;;;5056099;28;20670;-68
2021/12/13 00:32:40;;;;;;;11.38;6.88;;;18.50;46.60;;;;;;5056095;28;20767;-68
2021/12/13 00:35:12;;;;;;;11.48;6.45;;;18.50;46.10;;;;;;5056422;28;20286;-68
2021/12/13 00:37:40;;;;;;;11.85;6.47;;;18.50;46.00;;;;;;5056169;28;20187;-68
2021/12/13 00:40:09;;;;;;;12.43;7.20;;;18.40;46.20;;;;;;5073973;28;20183;-68
2021/12/13 00:42:39;;;;;;;9.02;6.53;;;18.40;46.10;;;;;;5055532;28;20712;-68
2021/12/13 00:45:09;;;;;;;9.45;6.25;;;18.40;46.20;;;;;;5055577;28;20190;-68
2021/12/13 00:47:37;;;;;;;10.48;6.20;;;18.40;46.10;;;;;;5055803;28;20199;-68
2021/12/13 00:50:09;;;;;;;13.30;6.47;;;18.40;46.40;;;;;;5055771;28;20214;-67
2021/12/13 00:52:37;;;;;;;9.18;6.60;;;18.40;46.40;;;;;;5055614;28;20268;-68
2021/12/13 00:55:10;;;;;;;9.55;5.80;;;18.30;46.50;;;;;;5073483;28;20221;-68
2021/12/13 00:57:40;;;;;;;9.98;6.05;;;18.30;46.40;;;;;;5073709;28;20183;-68
2021/12/13 01:00:11;;;;;;;10.25;6.30;;;18.30;46.20;;;;;;5055810;28;20219;-68
2021/12/13 01:02:41;;;;;;;9.30;5.95;;;18.30;46.30;;;;;;5056002;28;20756;-68
2021/12/13 01:05:11;;;;;;;10.27;6.40;;;18.30;48.80;;;;;;5055597;28;20552;-68
2021/12/13 01:08:14;;;;;;;9.05;5.82;;;18.30;49.10;;;;;;5055398;28;20194;-68
2021/12/13 01:11:17;;;;;;;8.25;5.43;;;18.30;49.40;;;;;;5055382;28;20708;-68
2021/12/13 01:14:40;;;;;;;9.23;5.78;;;18.30;49.30;;;;;;5055190;28;20191;-68
2021/12/13 01:17:14;;;;;;;10.25;5.35;;;18.30;48.90;;;;;;4975772;28;20198;-67
2021/12/13 01:19:50;;;;;;;9.55;5.40;;;18.30;48.90;;;;;;4992275;28;20256;-68
2021/12/13 01:22:40;;;;;;;8.70;5.47;;;18.30;48.80;;;;;;5049356;28;20617;-68
2021/12/13 01:25:22;;;;;;;8.70;5.60;;;18.30;48.70;;;;;;5055388;28;20284;-68
2021/12/13 01:27:58;;;;;;;10.30;5.50;;;18.30;48.30;;;;;;5055398;28;20194;-68
2021/12/13 01:30:30;;;;;;;8.60;5.90;;;18.30;48.20;;;;;;5054848;28;20222;-67
2021/12/13 01:32:59;;;;;;;8.98;5.50;;;18.30;48.10;;;;;;5054936;28;20190;-68
2021/12/13 01:35:28;;;;;;;8.48;6.20;;;18.20;48.00;;;;;;5055024;28;20199;-68
2021/12/13 01:38:02;;;;;;;7.80;6.05;;;18.20;47.80;;;;;;5054948;28;20209;-68
2021/12/13 01:40:32;;;;;;;7.75;5.65;;;18.20;47.70;;;;;;5054678;28;20186;-68
2021/12/13 01:43:03;;;;;;;7.50;4.97;;;18.20;47.50;;;;;;5054845;28;20194;-68
2021/12/13 01:45:31;;;;;;;7.68;5.80;;;18.20;47.50;;;;;;5072660;28;20186;-68
2021/12/13 01:47:59;;;;;;;9.40;5.90;;;18.10;47.60;;;;;;5054707;28;20233;-68
2021/12/13 01:50:29;;;;;;;7.65;5.40;;;18.10;47.30;;;;;;5054857;28;20210;-68
2021/12/13 01:53:00;;;;;;;9.15;6.00;;;18.10;47.30;;;;;;5055073;28;20215;-68
2021/12/13 01:55:32;;;;;;;8.07;5.32;;;18.10;47.30;;;;;;5054962;28;20552;-68
2021/12/13 01:58:19;;;;;;;8.88;5.50;;;18.10;47.20;;;;;;5054568;28;20309;-68
2021/12/13 02:03:37;;;;;;;7.88;5.28;;;18.10;47.20;;;;;;5053853;28;20191;-68
2021/12/13 02:06:05;;;;;;;8.05;5.20;;;18.10;47.20;;;;;;5072549;28;20178;-68
2021/12/13 02:08:34;;;;;;;8.27;5.22;;;18.10;47.20;;;;;;5054870;28;20282;-68
2021/12/13 02:11:02;;;;;;;7.80;5.25;;;18.00;47.20;;;;;;5087558;22;20332;-64
2021/12/13 02:13:34;;;;;;;6.75;5.38;;;18.00;47.30;;;;;;5052816;28;20654;-64
2021/12/13 02:18:49;;;;;;;6.10;5.10;;;18.00;47.10;;;;;;5014671;28;20220;-63
2021/12/13 02:21:22;;;;;;;6.90;5.50;;;18.00;47.10;;;;;;5015166;28;20287;-63
2021/12/13 02:23:52;;;;;;;7.13;5.00;;;17.90;47.10;;;;;;5014905;28;20200;-64
2021/12/13 02:26:20;;;;;;;7.05;5.28;;;17.90;47.10;;;;;;5032135;28;20192;-64
2021/12/13 02:28:50;;;;;;;8.45;5.80;;;17.90;47.10;;;;;;5034850;28;20200;-64
2021/12/13 02:31:20;;;;;;;7.75;4.93;;;17.90;47.10;;;;;;5034766;28;20758;-63
2021/12/13 02:33:51;;;;;;;6.00;4.82;;;17.90;47.10;;;;;;5035962;28;20202;-64
2021/12/13 02:36:19;;;;;;;7.78;5.05;;;17.90;47.10;;;;;;5018305;28;20199;-64
2021/12/13 02:38:47;;;;;;;6.72;4.95;;;17.90;47.10;;;;;;5034539;28;20223;-63
2021/12/13 02:41:17;;;;;;;6.57;4.90;;;17.90;47.20;;;;;;5036125;28;20302;-63
2021/12/13 02:43:46;;;;;;;7.72;5.43;;;17.80;47.20;;;;;;5018045;28;20250;-63
2021/12/13 02:46:14;;;;;;;7.70;4.80;;;17.80;47.20;;;;;;5017961;28;20204;-63
2021/12/13 02:48:45;;;;;;;5.97;4.63;;;17.80;47.20;;;;;;5036008;28;20286;-63
2021/12/13 02:51:16;;;;;;;7.20;5.03;;;17.80;47.30;;;;;;5035772;28;20541;-64
2021/12/13 02:53:45;;;;;;;7.90;5.18;;;17.80;47.20;;;;;;5034455;28;20200;-64
2021/12/13 02:56:13;;;;;;;7.32;4.70;;;17.80;47.30;;;;;;5035525;28;20226;-63
2021/12/13 02:58:41;;;;;;;7.60;4.53;;;17.80;47.40;;;;;;5035600;28;20200;-63
2021/12/13 03:01:11;;;;;;;7.28;5.13;;;17.70;47.20;;;;;;5017626;28;20683;-63
2021/12/13 03:03:40;;;;;;;6.03;4.85;;;17.80;47.30;;;;;;5034208;28;20196;-63
2021/12/13 03:06:09;;;;;;;5.55;4.60;;;17.80;47.30;;;;;;5017562;28;20619;-63
2021/12/13 03:08:37;;;;;;;5.72;4.53;;;17.80;47.30;;;;;;5017332;28;20208;-63
2021/12/13 03:11:07;;;;;;;8.57;5.07;;;17.70;47.30;;;;;;5033728;28;20216;-63
2021/12/13 03:13:35;;;;;;;6.95;5.32;;;17.70;47.20;;;;;;5035825;28;20177;-63
2021/12/13 03:16:06;;;;;;;6.22;4.60;;;17.70;47.30;;;;;;5034366;28;20207;-63
2021/12/13 03:18:40;;;;;;;5.85;4.60;;;17.70;47.40;;;;;;5033819;28;20200;-63
2021/12/13 03:21:26;;;;;;;6.55;4.53;;;17.70;47.40;;;;;;5035524;28;20271;-64
2021/12/13 03:23:58;;;;;;;6.25;4.93;;;17.70;47.30;;;;;;5034139;28;20599;-63
2021/12/13 03:26:44;;;;;;;6.05;4.75;;;17.70;47.20;;;;;;5017265;28;20263;-63
2021/12/13 03:29:13;;;;;;;5.78;4.75;;;17.70;47.40;;;;;;5018157;28;20196;-63
2021/12/13 03:31:43;;;;;;;6.53;4.40;;;17.70;47.30;;;;;;5017578;28;20227;-64
2021/12/13 03:34:11;;;;;;;7.68;4.90;;;17.70;47.20;;;;;;5034281;28;20219;-63
2021/12/13 03:36:49;;;;;;;5.40;4.47;;;17.60;47.20;;;;;;5017069;28;20315;-63
2021/12/13 03:39:22;;;;;;;4.90;4.25;;;17.70;47.20;;;;;;5034038;28;20206;-63
2021/12/13 03:41:51;;;;;;;6.82;4.43;;;17.60;47.10;;;;;;5033952;28;20239;-63
2021/12/13 03:44:21;;;;;;;6.35;4.78;;;17.60;47.20;;;;;;5033999;28;20246;-63
2021/12/13 03:46:52;;;;;;;5.53;4.55;;;17.60;47.10;;;;;;5034008;28;20270;-63
2021/12/13 03:49:19;;;;;;;4.78;4.18;;;17.60;47.10;;;;;;5036206;28;20551;-63
2021/12/13 03:51:46;;;;;;;5.63;4.07;;;17.60;47.10;;;;;;5035486;28;20625;-64
2021/12/13 03:54:16;;;;;;;6.70;4.60;;;17.60;47.00;;;;;;5017338;28;20220;-64
2021/12/13 03:56:45;;;;;;;4.80;4.30;;;17.60;47.10;;;;;;5033582;28;20226;-63
2021/12/13 03:59:14;;;;;;;6.10;4.47;;;17.60;47.00;;;;;;5033368;28;20269;-63
2021/12/13 04:01:42;;;;;;;5.45;4.68;;;17.60;47.00;;;;;;5033567;28;20200;-63
2021/12/13 04:04:14;;;;;;;7.07;4.70;;;17.60;47.00;;;;;;5034611;28;20198;-64
2021/12/13 04:06:44;;;;;;;5.95;4.60;;;17.50;46.90;;;;;;5016886;28;20220;-64
2021/12/13 04:09:11;;;;;;;4.65;4.05;;;17.50;46.80;;;;;;5033538;28;20192;-64
2021/12/13 04:11:39;;;;;;;5.40;4.30;;;17.50;46.80;;;;;;5032862;28;20251;-63
2021/12/13 04:14:11;;;;;;;4.70;4.28;;;17.50;47.10;;;;;;5034454;28;20228;-63
2021/12/13 04:16:49;;;;;;;5.57;5.07;;;17.50;47.30;;;;;;5034547;28;20243;-64
2021/12/13 04:19:21;;;;;;;4.90;4.25;;;17.50;47.20;;;;;;5033923;28;20558;-64
2021/12/13 04:21:51;;;;;;;5.03;4.32;;;17.50;46.90;;;;;;5034135;28;20267;-63
2021/12/13 04:24:20;;;;;;;5.50;4.53;;;17.50;46.90;;;;;;5034174;28;20192;-64
2021/12/13 04:26:49;;;;;;;6.00;4.70;;;17.60;46.90;;;;;;5033861;28;20278;-64
2021/12/13 04:29:18;;;;;;;6.90;4.57;;;17.60;47.50;;;;;;5016186;28;20195;-63
2021/12/13 04:31:46;;;;;;;6.20;4.90;;;17.60;46.70;;;;;;5016177;28;20691;-64
2021/12/13 04:34:13;;;;;;;6.53;4.57;;;17.60;46.60;;;;;;5016361;28;20196;-64
2021/12/13 04:36:44;;;;;;;5.15;4.07;;;17.60;46.50;;;;;;5016681;28;20208;-63
2021/12/13 04:39:15;;;;;;;4.88;4.35;;;17.70;46.50;;;;;;5034468;28;20624;-64
2021/12/13 04:41:46;;;;;;;5.18;4.40;;;17.70;46.60;;;;;;5016149;28;20184;-63
2021/12/13 04:44:14;;;;;;;5.22;4.45;;;17.70;46.40;;;;;;5034257;28;20284;-63
2021/12/13 04:46:42;;;;;;;5.30;4.15;;;17.70;46.30;;;;;;5033932;28;20630;-63
2021/12/13 04:49:10;;;;;;;5.68;4.53;;;17.70;46.30;;;;;;5032200;28;20188;-63
2021/12/13 04:51:41;;;;;;;4.50;3.97;;;17.70;46.90;;;;;;5033778;28;20692;-63
2021/12/13 04:54:09;;;;;;;4.10;3.70;;;17.70;46.20;;;;;;5033892;28;20193;-63
2021/12/13 04:56:36;;;;;;;5.72;4.10;;;17.70;46.20;;;;;;5033672;28;20216;-63
2021/12/13 04:59:04;;;;;;;4.40;3.95;;;17.80;46.30;;;;;;5032429;28;20204;-63
2021/12/13 05:01:30;;;;;;;4.80;3.88;;;17.70;46.10;;;;;;5032088;28;20671;-63
2021/12/13 05:04:00;;;;;;;4.55;4.15;;;17.80;46.20;;;;;;5033510;28;20198;-63
2021/12/13 05:06:29;;;;;;;4.85;4.32;;;17.80;46.10;;;;;;5033163;28;20192;-63
2021/12/13 05:08:59;;;;;;;5.75;4.20;;;17.80;46.10;;;;;;5032555;28;20552;-63
2021/12/13 05:11:29;;;;;;;4.82;4.28;;;17.80;46.10;;;;;;5033772;28;20251;-63
2021/12/13 05:13:56;;;;;;;4.10;3.50;;;17.80;46.00;;;;;;5033531;28;20212;-63
2021/12/13 05:16:28;;;;;;;4.88;4.22;;;17.80;46.10;;;;;;5032238;28;20196;-63
2021/12/13 05:18:55;;;;;;;4.78;3.60;;;17.80;46.00;;;;;;5015996;28;20181;-63
2021/12/13 05:21:24;;;;;;;4.18;3.72;;;17.80;46.00;;;;;;5033800;28;20196;-63
2021/12/13 05:23:55;;;;;;;4.30;3.75;;;17.90;46.00;;;;;;5034211;28;20184;-63
2021/12/13 05:26:32;;;;;;;4.50;4.10;;;17.90;46.00;;;;;;5016601;28;20204;-63
2021/12/13 05:29:00;;;;;;;4.30;3.90;;;17.90;45.90;;;;;;5016337;28;20203;-63
2021/12/13 05:31:28;;;;;;;4.68;4.15;;;17.90;45.90;;;;;;5033698;28;20561;-63
2021/12/13 05:33:56;;;;;;;5.32;4.13;;;17.90;45.90;;;;;;5016230;28;20196;-63
2021/12/13 05:36:27;;;;;;;4.60;4.20;;;17.90;45.90;;;;;;5034070;28;20225;-63
2021/12/13 05:39:03;;;;;;;4.72;4.15;;;17.90;46.00;;;;;;5033942;28;20242;-63
2021/12/13 05:41:31;;;;;;;4.43;3.95;;;17.90;45.60;;;;;;5033179;28;20198;-63
2021/12/13 05:44:00;;;;;;;5.00;4.20;;;17.90;45.60;;;;;;5032242;28;20227;-63
2021/12/13 05:46:34;;;;;;;4.72;4.32;;;17.90;45.50;;;;;;5033555;28;20305;-63
2021/12/13 05:49:02;;;;;;;5.28;4.53;;;18.00;45.50;;;;;;5033145;28;20255;-63
2021/12/13 05:51:31;;;;;;;4.72;4.22;;;18.00;45.60;;;;;;5032990;28;20216;-64
2021/12/13 05:54:01;;;;;;;4.50;3.78;;;18.00;45.40;;;;;;5032135;28;20203;-63
2021/12/13 05:56:35;;;;;;;3.50;3.20;;;18.00;45.40;;;;;;5033198;28;20242;-64
2021/12/13 05:59:11;;;;;;;4.47;3.65;;;18.10;45.40;;;;;;5031968;28;20759;-64
2021/12/13 06:01:44;;;;;;;3.75;3.45;;;18.10;45.30;;;;;;5019017;28;20638;-63
2021/12/13 06:04:13;;;;;;;4.55;3.90;;;18.10;45.30;;;;;;5019476;28;20196;-63
2021/12/13 06:06:46;;;;;;;3.35;3.05;;;18.10;45.30;;;;;;5037304;28;20230;-63
2021/12/13 06:09:39;;;;;;;3.95;3.55;;;18.10;45.20;;;;;;5019935;28;20203;-63
2021/12/13 06:12:10;;;;;;;3.65;3.35;;;18.10;45.10;;;;;;5037324;28;20215;-63
2021/12/13 06:14:37;;;;;;;4.32;3.83;;;18.20;45.10;;;;;;5019984;28;20242;-63
2021/12/13 06:17:06;;;;;;;4.65;3.70;;;18.10;45.00;;;;;;5037264;28;20220;-63
2021/12/13 06:19:36;;;;;;;4.70;3.70;;;18.20;45.60;;;;;;5020081;28;20196;-63
2021/12/13 06:22:08;;;;;;;3.90;3.50;;;18.20;45.00;;;;;;5037974;28;20263;-63
2021/12/13 06:24:37;;;;;;;4.32;3.72;;;18.20;44.90;;;;;;5037530;28;20623;-63
2021/12/13 06:27:27;;;;;;;3.33;3.05;;;18.20;44.90;;;;;;5037753;28;20629;-63
2021/12/13 06:30:07;;;;;;;3.65;3.35;;;18.20;44.80;;;;;;5033603;28;20243;-63
2021/12/13 06:32:41;;;;;;;4.35;3.58;;;18.30;44.90;;;;;;5036782;28;20216;-63
2021/12/13 06:35:36;;;;;;;4.30;3.33;;;18.20;44.80;;;;;;5038966;28;20264;-63
2021/12/13 06:38:40;;;;;;;3.67;3.33;;;18.30;44.80;;;;;;5020936;28;20567;-63
2021/12/13 06:41:10;;;;;;;3.70;3.40;;;18.30;44.80;;;;;;5038225;28;20660;-63
2021/12/13 06:43:40;;;;;;;3.70;3.40;;;18.30;44.80;;;;;;5020098;28;20545;-63
2021/12/13 06:46:08;;;;;;;4.07;3.63;;;18.30;44.80;;;;;;5019957;28;20227;-64
2021/12/13 06:48:38;;;;;;;3.60;3.30;;;18.30;44.70;;;;;;5036495;28;20635;-63
2021/12/13 06:51:06;;;;;;;4.50;3.40;;;18.30;44.70;;;;;;5037907;28;20220;-63
2021/12/13 06:53:33;;;;;;;3.55;3.25;;;18.30;44.70;;;;;;5019817;28;20362;-63
2021/12/13 06:56:21;;;;;;;3.88;3.40;;;18.30;44.60;;;;;;5035958;28;20279;-63
2021/12/13 06:58:52;;;;;;;3.40;3.05;;;18.30;44.60;;;;;;5019577;28;20254;-63
2021/12/13 07:01:19;;;;;;;3.85;3.50;;;18.30;44.60;;;;;;5037339;28;20187;-63
2021/12/13 07:03:53;;;;;;;3.65;3.35;;;18.40;44.60;;;;;;5019918;28;20294;-63
2021/12/13 07:06:21;;;;;;;4.30;3.50;;;18.40;44.70;;;;;;5037078;28;20206;-63
2021/12/13 07:08:48;;;;;;;3.95;3.65;;;18.40;44.60;;;;;;5018831;28;20640;-63
2021/12/13 07:11:17;;;;;;;3.72;3.40;;;18.30;44.60;;;;;;5033886;28;20774;-64
2021/12/13 07:13:48;;;;;;;4.03;3.30;;;18.40;44.60;;;;;;5034734;28;20192;-63
2021/12/13 07:16:20;;;;;;;3.67;3.38;;;18.30;44.60;;;;;;5034606;28;20626;-63
2021/12/13 07:18:49;;;;;;;3.80;3.50;;;18.40;44.60;;;;;;5034923;28;20210;-63
2021/12/13 07:21:17;;;;;;;4.03;3.58;;;18.40;44.60;;;;;;5036069;28;20682;-63
2021/12/13 07:23:56;;;;;;;3.90;3.50;;;18.40;44.60;;;;;;5035991;28;20211;-64
2021/12/13 07:26:36;;;;;;;3.80;3.50;;;18.40;44.50;;;;;;5035739;28;20199;-63
2021/12/13 07:29:04;;;;;;;4.53;3.92;;;18.40;44.50;;;;;;5018020;28;20295;-63
2021/12/13 07:31:33;;;;;;;4.28;3.83;;;18.50;44.60;;;;;;5034450;28;20212;-63
2021/12/13 07:34:11;;;;;;;3.90;3.60;;;18.50;44.60;;;;;;5034117;28;20200;-63
2021/12/13 07:36:38;;;;;;;4.10;3.70;;;18.50;44.60;;;;;;5017966;28;20277;-63
2021/12/13 07:39:11;;;;;;;3.67;3.30;;;18.50;44.60;;;;;;5035763;28;20200;-63
2021/12/13 07:41:41;;;;;;;4.38;3.97;;;18.50;44.60;;;;;;5035658;28;20173;-63
2021/12/13 07:44:08;;;;;;;3.80;3.40;;;18.50;44.60;;;;;;5034340;28;20196;-63
2021/12/13 07:46:38;;;;;;;3.80;3.50;;;18.50;44.60;;;;;;5017342;28;20756;-63
2021/12/13 07:49:08;;;;;;;3.70;3.40;;;18.50;45.10;;;;;;5033833;28;20656;-63
2021/12/13 07:51:36;;;;;;;4.60;3.70;;;18.50;44.60;;;;;;5017159;28;20269;-64
2021/12/13 07:54:05;;;;;;;4.07;3.67;;;18.50;44.60;;;;;;5035220;28;20539;-63
2021/12/13 07:56:47;;;;;;;4.22;3.80;;;18.50;44.50;;;;;;5017279;28;20722;-63
2021/12/13 07:59:17;;;;;;;3.70;3.40;;;18.50;44.40;;;;;;5033553;28;20360;-63
2021/12/13 08:01:48;;;;;;;4.60;3.50;;;18.60;44.60;;;;;;5017241;28;20656;-63
2021/12/13 08:04:18;;;;;;;3.42;3.20;;;18.60;44.40;;;;;;5033764;28;20219;-63
2021/12/13 08:06:47;;;;;;;3.80;3.40;;;18.60;44.40;;;;;;5034811;28;20215;-63
2021/12/13 08:09:16;;;;;;;3.80;3.50;;;18.60;44.40;;;;;;5034919;28;20735;-63
2021/12/13 08:11:50;;;;;;;3.92;3.63;;;18.60;44.40;;;;;;5051301;22;20227;-67
2021/12/13 08:14:24;;;;;;;3.97;3.67;;;18.60;44.40;;;;;;5036457;28;20188;-66
2021/12/13 08:16:53;;;;;;;4.60;4.13;;;18.60;45.00;;;;;;5036009;28;20238;-67
2021/12/13 08:19:22;;;;;;;4.38;3.97;;;18.60;44.30;;;;;;5054095;28;20222;-67
2021/12/13 08:21:52;;;;;;;5.07;4.38;;;18.60;44.20;;;;;;5035956;28;20215;-66
2021/12/13 08:24:26;;;;;;;5.07;4.57;;;18.60;44.10;;;;;;5035299;28;20196;-69
2021/12/13 08:27:03;;;;;;;4.90;4.40;;;18.60;44.20;;;;;;5036474;28;20248;-67
2021/12/13 08:29:32;;;;;;;5.47;4.97;;;18.60;44.20;;;;;;5037094;28;20215;-67
2021/12/13 08:32:02;;;;;;;4.93;4.05;;;18.60;44.20;;;;;;5053840;28;20277;-67
2021/12/13 08:34:31;;;;;;;4.38;3.97;;;18.70;44.20;;;;;;5054333;28;20176;-67
2021/12/13 08:36:58;;;;;;;4.70;4.30;;;18.70;44.20;;;;;;5036193;28;20192;-67
2021/12/13 08:39:26;;;;;;;4.47;4.07;;;18.70;44.10;;;;;;5036084;28;20199;-68
2021/12/13 08:41:55;;;;;;;4.00;3.70;;;18.70;44.20;;;;;;5035315;28;20227;-68
2021/12/13 08:44:25;;;;;;;4.40;4.00;;;18.70;44.10;;;;;;5035705;28;20196;-68
2021/12/13 08:46:56;;;;;;;4.13;3.83;;;18.70;44.70;;;;;;5035584;28;20226;-67
2021/12/13 08:49:35;;;;;;;4.43;4.00;;;18.70;44.00;;;;;;5035220;28;20209;-68
2021/12/13 08:52:10;;;;;;;5.00;4.60;;;18.70;44.00;;;;;;5035339;28;20314;-68
2021/12/13 08:54:43;;;;;;;4.55;4.15;;;18.80;44.00;;;;;;5035063;28;20195;-67
2021/12/13 08:57:12;;;;;;;4.40;4.03;;;18.80;44.00;;;;;;5053251;28;20202;-67
2021/12/13 08:59:48;;;;;;;5.00;4.43;;;18.80;44.00;;;;;;5035429;28;20196;-67
2021/12/13 09:02:15;;;;;;;4.40;4.00;;;18.80;44.00;;;;;;5034720;28;20679;-67
2021/12/13 09:04:57;;;;;;;5.32;4.80;;;18.80;44.10;;;;;;5034692;28;20206;-67
2021/12/13 09:07:25;;;;;;;5.28;4.65;;;18.80;44.10;;;;;;5034908;28;20599;-67
2021/12/13 09:12:31;;;;;;;6.55;4.63;;;18.80;44.40;;;;;;5050903;28;20770;-67
2021/12/13 09:14:58;;;;;;;5.90;4.75;;;18.90;44.90;;;;;;5034863;28;20630;-66
2021/12/13 09:17:26;;;;;;;6.55;4.28;;;18.90;44.90;;;;;;5035200;28;20199;-66
2021/12/13 09:19:58;;;;;;;6.35;4.90;;;18.90;45.00;;;;;;5034692;28;20253;-66
2021/12/13 09:22:27;;;;;;;6.80;5.00;;;18.90;45.80;;;;;;5035320;28;20309;-66
2021/12/13 09:24:57;;;;;;;5.40;4.30;;;19.00;46.20;;;;;;5035008;28;20290;-67
2021/12/13 09:27:45;;;;;;;6.70;4.57;;;19.00;45.90;;;;;;5053242;28;20677;-66
2021/12/13 09:30:33;;;;;;;6.20;4.82;;;19.00;45.40;;;;;;5034656;28;20580;-66
2021/12/13 09:33:03;;;;;;;5.40;4.90;;;19.00;45.90;;;;;;5053025;28;20208;-66
2021/12/13 09:35:38;;;;;;;5.78;4.93;;;19.00;45.90;;;;;;5034809;28;20282;-66
2021/12/13 09:38:23;;;;;;;6.78;4.90;;;19.00;45.00;;;;;;5052673;28;20283;-66
2021/12/13 09:40:54;;;;;;;5.30;4.35;;;19.10;45.30;;;;;;5052852;28;20262;-67
2021/12/13 09:43:22;;;;;;;5.18;4.30;;;19.10;45.20;;;;;;5034629;28;20219;-67
2021/12/13 09:45:52;;;;;;;4.82;4.10;;;19.10;45.10;;;;;;5034762;28;20191;-67
2021/12/13 09:48:23;;;;;;;4.50;4.10;;;19.10;45.00;;;;;;5034880;28;20191;-66
2021/12/13 09:50:55;;;;;;;5.32;4.70;;;19.20;45.10;;;;;;5034920;28;20205;-66
2021/12/13 09:53:24;;;;;;;5.10;4.30;;;19.20;44.80;;;;;;5034827;28;20585;-66
2021/12/13 09:55:51;;;;;;;5.35;4.72;;;19.20;44.80;;;;;;5034885;28;20298;-66
2021/12/13 09:58:19;;;;;;;5.75;4.63;;;19.20;45.00;;;;;;5034897;28;20244;-67
2021/12/13 10:00:49;;;;;;;7.13;4.68;;;19.20;45.00;;;;;;5034752;28;20252;-67
2021/12/13 10:03:19;;;;;;;5.05;4.55;;;19.30;45.00;;;;;;5034458;28;20250;-67
2021/12/13 10:05:49;;;;;;;5.28;4.43;;;19.30;45.10;;;;;;5035184;28;20199;-67
2021/12/13 10:08:19;;;;;;;7.03;5.00;;;19.30;44.70;;;;;;5034758;28;20199;-67
2021/12/13 10:10:49;;;;;;;6.75;5.25;;;19.30;44.70;;;;;;5034599;28;20207;-67
2021/12/13 10:13:19;;;;;;;5.38;4.90;;;19.40;44.50;;;;;;5034610;28;20590;-67
2021/12/13 10:15:49;;;;;;;5.05;4.50;;;19.40;44.90;;;;;;5034914;28;20221;-67
2021/12/13 10:18:18;;;;;;;4.80;3.97;;;19.40;44.80;;;;;;5052308;28;20187;-67
2021/12/13 10:20:47;;;;;;;4.85;4.40;;;19.40;44.60;;;;;;5034584;28;20199;-67
2021/12/13 10:23:16;;;;;;;4.95;4.55;;;19.50;44.80;;;;;;5034386;28;20216;-66
2021/12/13 10:25:45;;;;;;;5.03;4.53;;;19.50;44.80;;;;;;5034538;28;20200;-66
2021/12/13 10:28:15;;;;;;;5.03;4.60;;;19.60;44.70;;;;;;5034316;28;20202;-66
2021/12/13 10:30:44;;;;;;;4.75;4.32;;;19.60;44.70;;;;;;5033779;28;20253;-66
2021/12/13 10:33:11;;;;;;;5.95;4.70;;;19.60;44.70;;;;;;5051877;28;20211;-66
2021/12/13 10:35:40;;;;;;;5.80;5.20;;;19.60;44.40;;;;;;5034093;28;20195;-67
2021/12/13 10:38:11;;;;;;;4.28;3.90;;;19.60;44.30;;;;;;5034252;28;20286;-66
2021/12/13 10:40:46;;;;;;;5.28;4.75;;;19.60;44.20;;;;;;5034427;28;20283;-67
2021/12/13 10:43:15;;;;;;;6.53;4.82;;;19.70;44.40;;;;;;5034541;28;20220;-67
2021/12/13 10:45:45;;;;;;;5.28;4.78;;;19.70;44.50;;;;;;5052130;28;20192;-67
2021/12/13 10:48:14;;;;;;;5.80;5.30;;;19.70;44.40;;;;;;5037166;28;20554;-68
2021/12/13 10:50:44;;;;;;;4.82;4.43;;;19.70;44.20;;;;;;5038206;28;20207;-68
2021/12/13 10:53:12;;;;;;;5.45;4.75;;;19.70;44.00;;;;;;5038268;28;20215;-68
2021/12/13 10:55:44;;;;;;;5.35;4.85;;;19.80;44.00;;;;;;5055849;28;20202;-68
2021/12/13 10:58:14;;;;;;;4.82;4.40;;;19.80;43.90;;;;;;5037965;28;20563;-67
2021/12/13 11:00:43;;;;;;;5.40;4.90;;;19.80;43.90;;;;;;5037625;28;20269;-67
2021/12/13 11:03:13;;;;;;;4.88;4.47;;;19.80;43.90;;;;;;5038310;28;20631;-68
2021/12/13 11:05:40;;;;;;;4.28;3.88;;;19.80;43.80;;;;;;5038395;28;20195;-67
2021/12/13 11:08:07;;;;;;;4.63;4.15;;;19.80;43.80;;;;;;5038674;28;20219;-68
2021/12/13 11:10:37;;;;;;;5.03;4.60;;;19.80;43.80;;;;;;5038528;28;20218;-67
2021/12/13 11:13:04;;;;;;;5.88;4.50;;;19.90;43.80;;;;;;5038596;28;20302;-67
2021/12/13 11:15:35;;;;;;;5.78;4.70;;;19.90;43.90;;;;;;5055913;28;20196;-67
2021/12/13 11:18:03;;;;;;;5.30;4.80;;;19.90;44.00;;;;;;5037950;28;20559;-67
2021/12/13 11:20:32;;;;;;;5.50;5.00;;;19.90;43.80;;;;;;5037738;28;20246;-67
2021/12/13 11:22:59;;;;;;;7.03;5.05;;;19.90;43.90;;;;;;5037665;28;20223;-67
2021/12/13 11:25:30;;;;;;;5.13;4.63;;;19.90;44.00;;;;;;5037462;28;20613;-67
2021/12/13 11:27:57;;;;;;;6.13;5.00;;;19.90;44.10;;;;;;5054632;28;20416;-67
2021/12/13 11:30:27;;;;;;;5.17;4.60;;;19.90;44.00;;;;;;5037384;28;20526;-67
2021/12/13 11:33:30;;;;;;;6.13;4.70;;;19.90;44.20;;;;;;5037355;28;20215;-67
2021/12/13 11:36:35;;;;;;;4.50;3.95;;;19.90;44.20;;;;;;5008078;28;20201;-67
2021/12/13 11:39:27;;;;;;;6.15;4.63;;;20.00;44.60;;;;;;5037051;28;20203;-67
2021/12/13 11:42:42;;;;;;;7.53;4.97;;;20.00;44.60;;;;;;5037289;28;20808;-67
2021/12/13 11:45:54;;;;;;;4.53;4.13;;;20.00;44.80;;;;;;4994651;28;20215;-67
2021/12/13 11:48:34;;;;;;;5.70;4.88;;;20.00;44.70;;;;;;4962694;28;20191;-67
2021/12/13 11:51:24;;;;;;;5.63;4.80;;;20.00;44.90;;;;;;5037287;28;20199;-67
2021/12/13 11:54:40;;;;;;;4.80;4.40;;;20.00;44.80;;;;;;5036733;28;20615;-67
2021/12/13 11:57:23;;;;;;;5.05;4.53;;;20.00;44.80;;;;;;4938597;29;20264;-67
2021/12/13 12:00:09;;;;;;;5.13;4.00;;;20.00;45.00;;;;;;4954361;28;20207;-67
2021/12/13 12:02:47;;;;;;;5.15;4.50;;;20.00;44.90;;;;;;5033537;28;20713;-67
2021/12/13 12:05:54;;;;;;;4.90;4.40;;;20.10;44.70;;;;;;5037439;28;20202;-67
2021/12/13 12:08:45;;;;;;;4.90;4.32;;;20.10;44.60;;;;;;4996523;28;20197;-67
2021/12/13 12:12:12;;;;;;;4.18;3.88;;;20.10;44.60;;;;;;5036757;28;20225;-67
2021/12/13 12:14:39;;;;;;;4.80;4.30;;;20.10;44.80;;;;;;4938763;29;20374;-67
2021/12/13 12:17:06;;;;;;;4.35;3.95;;;20.10;44.80;;;;;;5014021;28;20207;-67
2021/12/13 12:19:35;;;;;;;6.28;4.25;;;20.10;44.60;;;;;;5037714;28;20206;-67
2021/12/13 12:22:02;;;;;;;6.05;4.68;;;20.10;44.60;;;;;;5037706;28;20253;-68
2021/12/13 12:24:33;;;;;;;5.32;4.82;;;20.10;44.60;;;;;;5056334;28;20233;-68
2021/12/13 12:27:02;;;;;;;4.97;4.47;;;20.10;45.20;;;;;;5037751;28;20191;-68
2021/12/13 12:29:30;;;;;;;4.75;4.32;;;20.10;44.60;;;;;;5037359;28;20203;-67
2021/12/13 12:32:00;;;;;;;4.82;4.32;;;20.10;44.40;;;;;;5037079;28;20619;-67
2021/12/13 12:34:27;;;;;;;5.53;4.47;;;20.10;44.60;;;;;;5037460;28;20233;-67
2021/12/13 12:37:43;;;;;;;5.53;5.03;;;20.20;44.60;;;;;;5054595;28;20209;-67
2021/12/13 12:40:29;;;;;;;4.88;4.45;;;20.20;44.70;;;;;;5036758;28;20227;-67
2021/12/13 12:43:02;;;;;;;4.50;3.70;;;20.20;44.70;;;;;;5035576;28;20298;-67
2021/12/13 12:45:31;;;;;;;4.70;4.30;;;20.20;44.70;;;;;;5036776;28;20530;-67
2021/12/13 12:48:13;;;;;;;5.75;4.47;;;20.20;44.70;;;;;;5036524;28;20207;-68
2021/12/13 12:50:49;;;;;;;5.18;4.30;;;20.20;44.50;;;;;;5054138;28;20179;-68
2021/12/13 12:53:18;;;;;;;5.43;4.60;;;20.20;44.60;;;;;;5035901;28;20215;-67
2021/12/13 12:55:49;;;;;;;6.40;5.15;;;20.20;44.70;;;;;;5036261;28;20235;-67
2021/12/13 12:58:18;;;;;;;5.32;4.80;;;20.20;44.80;;;;;;5036164;28;20615;-68
2021/12/13 13:00:46;;;;;;;6.13;5.05;;;20.20;44.60;;;;;;5036148;28;20553;-68
2021/12/13 13:03:15;;;;;;;5.22;4.72;;;20.20;44.40;;;;;;5036095;28;20207;-68
2021/12/13 13:05:42;;;;;;;5.50;5.00;;;20.30;44.40;;;;;;5053584;28;20191;-68
2021/12/13 13:08:09;;;;;;;5.85;5.03;;;20.20;44.20;;;;;;5053348;28;20194;-69
2021/12/13 13:13:18;;;;;;;4.97;4.40;;;20.20;44.00;;;;;;5032011;28;20215;-68
2021/12/13 13:15:47;;;;;;;7.40;5.25;;;20.20;43.90;;;;;;5036000;28;20611;-68
2021/12/13 13:18:15;;;;;;;5.13;4.20;;;20.20;43.90;;;;;;5035920;28;20210;-68
2021/12/13 13:20:44;;;;;;;6.07;4.80;;;20.30;44.00;;;;;;5035630;28;20227;-68
2021/12/13 13:23:12;;;;;;;4.47;4.07;;;20.20;43.80;;;;;;5035292;28;20239;-68